Time;durP1;ratioP1;P1;durP2;ratioP2;P2;SDS_P1;SDS_P2;PMS_P1;PMS_P2;Temp;Humidity;BMP_temperature;BMP_pressure;BME280_temperature;BME280_humidity;BME280_pressure;Samples;Min_cycle;Max_cycle;Signal;HPM_P1;HPM_P2
2020/12/30 00:00:59;;;;;;;4.67;2.80;;;;;;;2.01;100.00;94610.25;5000290;28;20244;-72
2020/12/30 00:03:25;;;;;;;4.13;2.70;;;;;;;1.98;100.00;94611.38;4999964;28;20272;-72
2020/12/30 00:05:52;;;;;;;6.13;2.53;;;;;;;2.00;100.00;94613.84;4999767;28;20205;-72
2020/12/30 00:08:18;;;;;;;4.50;2.60;;;;;;;2.08;100.00;94614.63;5000734;28;20206;-71
2020/12/30 00:10:44;;;;;;;4.40;2.90;;;;;;;2.12;100.00;94617.72;5000830;28;20290;-72
2020/12/30 00:13:11;;;;;;;4.10;2.63;;;;;;;2.20;100.00;94615.09;5000549;28;20226;-72
2020/12/30 00:15:37;;;;;;;4.33;2.60;;;;;;;2.18;100.00;94609.25;4999830;28;20206;-72
2020/12/30 00:18:03;;;;;;;5.30;2.63;;;;;;;2.22;100.00;94613.94;5000779;28;20253;-72
2020/12/30 00:20:29;;;;;;;4.27;2.60;;;;;;;2.23;100.00;94615.56;5000639;28;20203;-72
2020/12/30 00:22:55;;;;;;;3.67;2.40;;;;;;;2.26;100.00;94609.25;5000497;28;20313;-72
2020/12/30 00:25:21;;;;;;;3.87;2.33;;;;;;;2.27;100.00;94616.06;4999908;28;20202;-72
2020/12/30 00:27:47;;;;;;;2.90;2.40;;;;;;;2.04;100.00;94617.72;5000544;28;20202;-72
2020/12/30 00:30:15;;;;;;;4.40;2.63;;;;;;;1.97;100.00;94604.59;4999286;28;20261;-72
2020/12/30 00:32:41;;;;;;;8.63;3.20;;;;;;;1.96;100.00;94620.31;5000362;28;20233;-72
2020/12/30 00:35:08;;;;;;;4.80;2.70;;;;;;;1.90;100.00;94613.22;5000195;28;20206;-71
2020/12/30 00:37:34;;;;;;;3.60;2.50;;;;;;;1.92;100.00;94625.06;5000620;28;20202;-72
2020/12/30 00:40:01;;;;;;;7.13;2.67;;;;;;;1.99;100.00;94622.59;5000032;28;20218;-72
2020/12/30 00:42:31;;;;;;;4.13;2.50;;;;;;;2.01;100.00;94618.03;4999708;28;20717;-72
2020/12/30 00:44:58;;;;;;;5.73;2.90;;;;;;;1.86;100.00;94624.91;4999507;28;20202;-72
2020/12/30 00:47:25;;;;;;;6.57;2.83;;;;;;;1.92;100.00;94616.44;4999644;28;20203;-72
2020/12/30 00:49:51;;;;;;;4.37;2.50;;;;;;;1.80;100.00;94628.16;4999744;28;20202;-72
2020/12/30 00:52:17;;;;;;;8.37;3.60;;;;;;;1.83;100.00;94617.41;4999894;28;20258;-72
2020/12/30 00:54:43;;;;;;;10.00;3.53;;;;;;;1.86;100.00;94617.91;4999683;28;20217;-72
2020/12/30 00:57:09;;;;;;;15.67;4.50;;;;;;;1.78;100.00;94616.28;4999541;28;20662;-72
2020/12/30 00:59:35;;;;;;;8.83;3.57;;;;;;;1.80;100.00;94630.75;4999733;28;20313;-72
2020/12/30 01:02:01;;;;;;;9.27;3.10;;;;;;;1.87;100.00;94631.69;4999543;28;20213;-72
2020/12/30 01:04:28;;;;;;;5.07;2.90;;;;;;;1.86;100.00;94623.09;5000175;28;20783;-72
2020/12/30 01:06:55;;;;;;;6.33;3.00;;;;;;;1.77;100.00;94638.03;4999078;28;20211;-72
2020/12/30 01:09:22;;;;;;;5.10;2.70;;;;;;;1.78;100.00;94635.28;4999682;28;20210;-72
2020/12/30 01:11:48;;;;;;;4.00;2.63;;;;;;;1.74;100.00;94643.56;4999094;28;20225;-72
2020/12/30 01:14:15;;;;;;;4.90;2.73;;;;;;;1.63;100.00;94642.09;4999833;28;20206;-72
2020/12/30 01:16:41;;;;;;;5.53;2.60;;;;;;;1.71;100.00;94649.88;4998778;28;20681;-71
2020/12/30 01:19:07;;;;;;;3.37;2.57;;;;;;;1.70;100.00;94653.44;4999803;28;20222;-72
2020/12/30 01:21:40;;;;;;;4.10;2.70;;;;;;;1.62;100.00;94656.06;4999690;28;20203;-71
2020/12/30 01:24:06;;;;;;;3.63;2.73;;;;;;;1.53;100.00;94653.63;4999521;28;21053;-72
2020/12/30 01:26:32;;;;;;;3.90;2.50;;;;;;;1.59;100.00;94650.38;4999229;28;20202;-72
2020/12/30 01:28:58;;;;;;;3.27;2.73;;;;;;;1.55;100.00;94649.88;4999986;28;20288;-72
2020/12/30 01:31:26;;;;;;;3.80;2.77;;;;;;;1.46;100.00;94645.66;4999753;28;20220;-72
2020/12/30 01:33:52;;;;;;;6.40;2.73;;;;;;;1.39;100.00;94652.47;4999885;28;20222;-72
2020/12/30 01:36:18;;;;;;;4.17;2.73;;;;;;;1.36;100.00;94657.16;4999719;28;20289;-72
2020/12/30 01:38:45;;;;;;;3.93;2.77;;;;;;;1.29;100.00;94659.56;4999647;28;20837;-71
2020/12/30 01:41:11;;;;;;;4.33;2.77;;;;;;;1.36;100.00;94654.56;5000252;28;20205;-72
2020/12/30 01:43:37;;;;;;;3.90;2.77;;;;;;;1.26;100.00;94652.13;4999741;28;20226;-72
2020/12/30 01:46:03;;;;;;;6.30;3.30;;;;;;;1.05;100.00;94642.34;4999336;28;20205;-72
2020/12/30 01:48:30;;;;;;;3.63;2.53;;;;;;;1.14;100.00;94649.19;4999534;28;20681;-72
2020/12/30 01:50:57;;;;;;;4.17;2.80;;;;;;;1.22;100.00;94637.84;4999601;28;20198;-71
2020/12/30 01:53:23;;;;;;;5.23;2.90;;;;;;;1.22;100.00;94652.59;5002662;28;20940;-71
2020/12/30 01:55:53;;;;;;;4.17;2.90;;;;;;;1.10;100.00;94651.28;5001418;28;20207;-71
2020/12/30 01:58:19;;;;;;;4.00;2.70;;;;;;;0.98;100.00;94651.72;5003042;28;20206;-72
2020/12/30 02:00:49;;;;;;;4.97;3.00;;;;;;;1.02;100.00;94655.63;5002650;28;20202;-72
2020/12/30 02:03:15;;;;;;;7.07;2.93;;;;;;;1.12;100.00;94651.94;5002501;28;20221;-71
2020/12/30 02:05:43;;;;;;;5.20;3.40;;;;;;;0.97;100.00;94660.47;5001611;28;20693;-72
2020/12/30 02:08:09;;;;;;;4.77;3.30;;;;;;;1.13;100.00;94648.34;5001917;28;20211;-72
2020/12/30 02:10:35;;;;;;;4.53;2.97;;;;;;;1.20;100.00;94652.75;5001414;28;20199;-71
2020/12/30 02:13:02;;;;;;;5.33;3.20;;;;;;;1.22;100.00;94656.00;5001931;28;20230;-72
2020/12/30 02:15:29;;;;;;;4.30;3.00;;;;;;;1.22;100.00;94657.78;5001965;28;20209;-72
2020/12/30 02:17:56;;;;;;;4.00;3.00;;;;;;;1.30;100.00;94660.41;5001912;28;20198;-72
2020/12/30 02:20:22;;;;;;;6.30;3.20;;;;;;;1.27;100.00;94661.53;5002322;28;20233;-71
2020/12/30 02:22:58;;;;;;;8.40;3.30;;;;;;;1.26;100.00;94656.47;5001551;28;20992;-72
2020/12/30 02:25:24;;;;;;;6.37;3.27;;;;;;;1.25;100.00;94658.28;5001244;28;20224;-72
2020/12/30 02:27:50;;;;;;;5.23;3.37;;;;;;;1.24;100.00;94661.84;5001208;28;20202;-72
2020/12/30 02:30:17;;;;;;;6.57;3.70;;;;;;;1.24;100.00;94672.22;5002380;28;20208;-72
2020/12/30 02:32:43;;;;;;;4.73;3.13;;;;;;;1.22;100.00;94670.75;5001644;28;20253;-71
2020/12/30 02:35:09;;;;;;;4.57;3.27;;;;;;;1.32;100.00;94671.41;5000891;28;20217;-71
2020/12/30 02:37:35;;;;;;;6.77;3.50;;;;;;;1.29;100.00;94676.94;5002321;28;20264;-72
2020/12/30 02:40:01;;;;;;;6.90;3.20;;;;;;;1.33;100.00;94671.25;5001284;28;20313;-71
2020/12/30 02:42:28;;;;;;;4.83;3.30;;;;;;;1.26;100.00;94672.88;5002229;28;20237;-71
2020/12/30 02:45:01;;;;;;;4.33;3.17;;;;;;;1.26;100.00;94670.28;5001049;28;20209;-72
2020/12/30 02:47:27;;;;;;;6.30;3.40;;;;;;;1.28;100.00;94668.31;5002711;28;20218;-71
2020/12/30 02:49:53;;;;;;;5.80;3.40;;;;;;;1.28;100.00;94673.50;5001248;28;20259;-71
2020/12/30 02:52:19;;;;;;;7.03;3.30;;;;;;;1.31;100.00;94664.59;5001738;28;20324;-72
2020/12/30 02:54:45;;;;;;;5.67;3.17;;;;;;;1.35;100.00;94669.31;5001318;28;20562;-71
2020/12/30 02:57:11;;;;;;;4.70;3.20;;;;;;;1.30;100.00;94671.59;5001327;28;20317;-71
2020/12/30 02:59:38;;;;;;;5.83;3.40;;;;;;;1.23;100.00;94673.22;5000315;28;20954;-71
2020/12/30 03:02:03;;;;;;;6.13;3.20;;;;;;;1.27;100.00;94673.69;5001584;28;20744;-71
2020/12/30 03:04:29;;;;;;;5.70;3.43;;;;;;;1.18;100.00;94677.22;5000973;28;20256;-71
2020/12/30 03:06:55;;;;;;;6.03;3.77;;;;;;;1.16;100.00;94676.59;5001117;28;20657;-72
2020/12/30 03:09:21;;;;;;;6.33;4.20;;;;;;;1.19;100.00;94680.66;5000976;28;20285;-71
2020/12/30 03:11:48;;;;;;;6.70;4.07;;;;;;;1.19;100.00;94690.03;5001236;28;20303;-72
2020/12/30 03:14:14;;;;;;;8.17;4.00;;;;;;;1.23;100.00;94685.34;5000766;28;20205;-72
2020/12/30 03:16:41;;;;;;;6.70;4.30;;;;;;;1.19;100.00;94690.03;5000693;28;20202;-71
2020/12/30 03:19:07;;;;;;;9.37;4.00;;;;;;;1.10;100.00;94687.59;5000769;28;20230;-72
2020/12/30 03:21:33;;;;;;;8.57;4.30;;;;;;;1.14;100.00;94685.50;5001224;28;20353;-71
2020/12/30 03:23:59;;;;;;;7.13;4.07;;;;;;;1.05;100.00;94686.44;4999420;28;20233;-71
2020/12/30 03:26:25;;;;;;;5.03;3.77;;;;;;;1.14;100.00;94685.50;5000035;28;20202;-71
2020/12/30 03:28:51;;;;;;;4.83;3.47;;;;;;;1.02;100.00;94682.38;5001220;28;20205;-72
2020/12/30 03:31:17;;;;;;;4.83;3.23;;;;;;;1.01;100.00;94685.13;5000761;28;20217;-71
2020/12/30 03:33:44;;;;;;;5.30;3.60;;;;;;;0.99;100.00;94689.66;5000930;28;20218;-72
2020/12/30 03:36:10;;;;;;;4.40;3.30;;;;;;;1.10;100.00;94695.38;5000056;28;20713;-72
2020/12/30 03:38:36;;;;;;;4.43;3.40;;;;;;;1.13;100.00;94696.84;5000631;28;20245;-71
2020/12/30 03:41:02;;;;;;;5.30;3.37;;;;;;;1.19;100.00;94699.59;5000703;28;21274;-71
2020/12/30 03:43:27;;;;;;;7.27;3.30;;;;;;;1.17;100.00;94698.94;5000759;28;20250;-71
2020/12/30 03:45:53;;;;;;;4.17;3.23;;;;;;;1.21;100.00;94701.06;4999722;28;20218;-72
2020/12/30 03:48:19;;;;;;;6.43;3.10;;;;;;;1.11;100.00;94699.59;5001072;28;20226;-71
2020/12/30 03:50:46;;;;;;;6.50;3.07;;;;;;;1.13;100.00;94702.81;5000062;28;20216;-72
2020/12/30 03:53:12;;;;;;;4.97;3.07;;;;;;;1.07;100.00;94705.22;5000582;28;20273;-72
2020/12/30 03:55:38;;;;;;;5.03;3.17;;;;;;;1.01;100.00;94711.06;4999187;28;20321;-71
2020/12/30 03:58:04;;;;;;;5.30;3.17;;;;;;;1.05;100.00;94702.00;5000790;28;20202;-72
2020/12/30 04:00:30;;;;;;;7.27;3.33;;;;;;;1.10;100.00;94704.94;5000106;28;20261;-72
2020/12/30 04:02:56;;;;;;;4.50;2.93;;;;;;;1.06;100.00;94706.19;4999273;28;20226;-71
2020/12/30 04:05:22;;;;;;;4.30;3.00;;;;;;;1.08;100.00;94704.28;4999795;28;20654;-72
2020/12/30 04:07:49;;;;;;;4.83;3.03;;;;;;;0.89;100.00;94700.16;4999159;28;20615;-72
2020/12/30 04:10:15;;;;;;;4.07;3.00;;;;;;;1.06;100.00;94703.59;4999880;28;20206;-72
2020/12/30 04:12:41;;;;;;;3.87;3.10;;;;;;;1.06;100.00;94708.78;5000227;28;20226;-71
2020/12/30 04:15:07;;;;;;;5.60;2.87;;;;;;;1.12;100.00;94697.78;4999649;28;20643;-72
2020/12/30 04:17:33;;;;;;;5.53;2.90;;;;;;;1.14;100.00;94706.25;4999906;28;20263;-72
2020/12/30 04:19:59;;;;;;;5.37;2.83;;;;;;;1.15;100.00;94702.69;4999977;28;20230;-72
2020/12/30 04:22:25;;;;;;;4.37;2.90;;;;;;;1.13;100.00;94704.63;4999623;28;20229;-72
2020/12/30 04:24:52;;;;;;;6.27;3.00;;;;;;;1.14;100.00;94711.44;4999522;28;20625;-71
2020/12/30 04:27:18;;;;;;;8.07;3.20;;;;;;;1.00;100.00;94710.22;4999047;28;20893;-72
2020/12/30 04:29:44;;;;;;;5.83;3.00;;;;;;;0.99;100.00;94718.19;4999580;28;20213;-72
2020/12/30 04:32:10;;;;;;;4.57;2.60;;;;;;;0.97;100.00;94714.91;4999424;28;20602;-72
2020/12/30 04:34:36;;;;;;;3.97;2.90;;;;;;;1.00;100.00;94720.59;4998823;28;20316;-72
2020/12/30 04:37:02;;;;;;;4.63;2.90;;;;;;;1.02;100.00;94728.22;4998613;28;21242;-71
2020/12/30 04:39:28;;;;;;;7.93;3.00;;;;;;;0.91;100.00;94726.72;4999422;28;20239;-71
2020/12/30 04:41:58;;;;;;;3.30;2.50;;;;;;;0.93;100.00;94729.16;4999711;28;20662;-72
2020/12/30 04:44:29;;;;;;;4.63;3.23;;;;;;;0.87;100.00;94735.00;4999452;28;20217;-72
2020/12/30 04:46:56;;;;;;;5.17;2.90;;;;;;;0.85;100.00;94729.13;4998162;28;20217;-71
2020/12/30 04:49:23;;;;;;;6.30;3.07;;;;;;;0.93;100.00;94730.00;4999140;28;20252;-72
2020/12/30 04:51:49;;;;;;;4.07;2.77;;;;;;;0.91;100.00;94738.91;4998496;28;20199;-72
2020/12/30 04:54:15;;;;;;;4.40;3.23;;;;;;;0.96;100.00;94744.44;4999141;28;20214;-71
2020/12/30 04:56:58;;;;;;;11.60;4.60;;;;;;;0.90;100.00;94743.25;4998183;28;20264;-72
2020/12/30 04:59:27;;;;;;;7.73;4.43;;;;;;;0.89;100.00;94746.84;4998857;28;20234;-72
2020/12/30 05:02:02;;;;;;;7.60;3.60;;;;;;;0.87;100.00;94746.16;4998634;28;20206;-72
2020/12/30 05:04:30;;;;;;;5.07;3.40;;;;;;;0.78;100.00;94747.09;4998500;28;20203;-72
2020/12/30 05:07:02;;;;;;;5.00;3.30;;;;;;;0.88;100.00;94749.56;4997992;28;20211;-72
2020/12/30 05:09:28;;;;;;;6.53;3.90;;;;;;;0.98;100.00;94747.66;4998357;28;20669;-72
2020/12/30 05:11:54;;;;;;;5.10;3.50;;;;;;;0.84;100.00;94753.41;4999876;28;20213;-71
2020/12/30 05:14:21;;;;;;;5.83;3.60;;;;;;;0.94;100.00;94747.19;4998100;28;20198;-72
2020/12/30 05:16:46;;;;;;;4.80;3.47;;;;;;;0.95;100.00;94753.16;4997934;28;20205;-72
2020/12/30 05:19:12;;;;;;;5.47;3.60;;;;;;;0.87;100.00;94760.91;4998736;28;20823;-72
2020/12/30 05:21:38;;;;;;;5.87;3.80;;;;;;;0.81;100.00;94758.94;4999116;28;20213;-72
2020/12/30 05:24:05;;;;;;;5.60;3.53;;;;;;;0.90;100.00;94763.19;4998304;28;20320;-72
2020/12/30 05:26:32;;;;;;;5.37;3.43;;;;;;;0.87;100.00;94772.09;4998852;28;20290;-72
2020/12/30 05:28:59;;;;;;;6.10;3.93;;;;;;;0.96;100.00;94771.16;5001553;28;20210;-72
2020/12/30 05:31:26;;;;;;;5.83;3.63;;;;;;;0.93;100.00;94773.25;5002375;28;20213;-72
2020/12/30 05:33:52;;;;;;;7.37;4.20;;;;;;;0.87;100.00;94776.47;5002359;28;20225;-72
2020/12/30 05:36:18;;;;;;;9.30;4.30;;;;;;;0.95;100.00;94779.91;5001810;28;20658;-72
2020/12/30 05:38:44;;;;;;;8.27;4.00;;;;;;;0.86;100.00;94780.81;5001803;28;20230;-72
2020/12/30 05:41:17;;;;;;;6.07;3.97;;;;;;;0.93;100.00;94793.97;5002203;28;20297;-72
2020/12/30 05:43:43;;;;;;;7.40;4.47;;;;;;;0.99;100.00;94796.75;5001818;28;21320;-72
2020/12/30 05:46:09;;;;;;;9.83;4.00;;;;;;;0.91;100.00;94801.13;5000941;28;20290;-72
2020/12/30 05:48:36;;;;;;;7.80;4.17;;;;;;;0.96;100.00;94806.66;5002472;28;20861;-72
2020/12/30 05:51:02;;;;;;;7.30;4.30;;;;;;;0.88;100.00;94809.19;5002107;28;20325;-72
2020/12/30 05:53:28;;;;;;;22.23;8.63;;;;;;;0.73;100.00;94814.13;5001779;28;20226;-72
2020/12/30 05:56:09;;;;;;;8.27;5.00;;;;;;;0.83;100.00;94814.84;5001040;28;20280;-72
2020/12/30 05:58:36;;;;;;;24.17;9.27;;;;;;;1.03;100.00;94813.66;5001923;28;20685;-72
2020/12/30 06:01:23;;;;;;;10.47;5.37;;;;;;;0.95;100.00;94823.97;5001396;28;20234;-72
2020/12/30 06:03:50;;;;;;;14.70;4.90;;;;;;;1.10;100.00;94821.66;5002008;28;20226;-71
2020/12/30 06:06:20;;;;;;;9.20;4.80;;;;;;;1.12;100.00;94819.69;5001341;28;20206;-71
2020/12/30 06:08:48;;;;;;;8.90;4.73;;;;;;;1.03;100.00;94828.41;5001986;28;20214;-72
2020/12/30 06:11:22;;;;;;;8.27;5.10;;;;;;;1.10;100.00;94832.00;5001328;28;20203;-73
2020/12/30 06:13:52;;;;;;;11.37;5.37;;;;;;;1.15;100.00;94824.59;5001942;28;20261;-72
2020/12/30 06:16:20;;;;;;;12.70;5.43;;;;;;;1.15;100.00;94829.78;5000529;28;20202;-72
2020/12/30 06:18:48;;;;;;;11.27;5.60;;;;;;;1.16;100.00;94826.19;5000623;28;20199;-72
2020/12/30 06:21:16;;;;;;;7.57;5.40;;;;;;;1.19;100.00;94833.69;5002401;28;20218;-71
2020/12/30 06:23:43;;;;;;;8.93;5.50;;;;;;;1.25;100.00;94833.88;5000673;28;20219;-72
2020/12/30 06:26:17;;;;;;;15.70;8.97;;;;;;;1.26;100.00;94835.47;4999573;28;20199;-71
2020/12/30 06:28:49;;;;;;;9.37;5.53;;;;;;;1.23;100.00;94835.78;5001057;28;20206;-71
2020/12/30 06:31:15;;;;;;;7.17;4.60;;;;;;;1.26;100.00;94835.47;5000592;28;20206;-72
2020/12/30 06:33:41;;;;;;;8.57;4.60;;;;;;;1.18;100.00;94847.63;5001760;28;20232;-71
2020/12/30 06:36:07;;;;;;;10.67;5.10;;;;;;;1.07;100.00;94850.47;4999910;28;20210;-72
2020/12/30 06:38:34;;;;;;;8.30;4.60;;;;;;;1.06;100.00;94851.41;5001083;28;20221;-71
2020/12/30 06:41:02;;;;;;;7.47;4.93;;;;;;;1.07;100.00;94855.66;5000808;28;20738;-72
2020/12/30 06:43:38;;;;;;;10.33;6.30;;;;;;;0.94;100.00;94865.63;5001005;28;20233;-72
2020/12/30 06:46:05;;;;;;;14.17;7.73;;;;;;;0.93;100.00;94863.97;5000233;28;20255;-72
2020/12/30 06:48:31;;;;;;;13.57;7.50;;;;;;;0.82;100.00;94869.44;5000533;28;20206;-72
2020/12/30 06:51:16;;;;;;;27.73;9.70;;;;;;;0.71;100.00;94872.25;5001318;28;20208;-72
2020/12/30 06:53:50;;;;;;;18.40;8.43;;;;;;;0.68;100.00;94875.97;5000720;28;20225;-72
2020/12/30 06:56:35;;;;;;;24.00;9.27;;;;;;;0.63;100.00;94883.38;4999820;28;20258;-72
2020/12/30 06:59:01;;;;;;;17.73;9.27;;;;;;;0.62;100.00;94876.59;5000526;28;20226;-72
2020/12/30 07:01:27;;;;;;;18.80;9.30;;;;;;;0.72;100.00;94881.69;5000396;28;20888;-72
2020/12/30 07:03:53;;;;;;;22.70;10.83;;;;;;;0.68;100.00;94881.16;5000349;28;20323;-72
2020/12/30 07:06:30;;;;;;;28.27;11.40;;;;;;;0.64;100.00;94879.03;4999559;28;20237;-72
2020/12/30 07:08:59;;;;;;;31.93;12.10;;;;;;;0.53;100.00;94876.66;4999140;28;20203;-71
2020/12/30 07:11:45;;;;;;;28.30;11.60;;;;;;;0.57;100.00;94887.53;4999074;28;20674;-71
2020/12/30 07:14:13;;;;;;;35.60;12.33;;;;;;;0.58;100.00;94895.97;5000610;28;20204;-71
2020/12/30 07:16:40;;;;;;;21.47;8.97;;;;;;;0.51;100.00;94899.34;4999026;28;20202;-72
2020/12/30 07:19:11;;;;;;;21.97;8.87;;;;;;;0.50;100.00;94902.88;4998912;28;20226;-71
2020/12/30 07:21:48;;;;;;;24.07;8.93;;;;;;;0.57;100.00;94914.25;4998735;28;20241;-72
2020/12/30 07:24:19;;;;;;;19.03;8.57;;;;;;;0.48;100.00;94909.16;4999199;28;20241;-72
2020/12/30 07:26:47;;;;;;;16.80;7.87;;;;;;;0.58;100.00;94910.72;4998284;28;20206;-72
2020/12/30 07:29:13;;;;;;;15.20;7.13;;;;;;;0.68;100.00;94917.44;4998907;28;20200;-72
2020/12/30 07:31:39;;;;;;;14.63;7.57;;;;;;;0.63;100.00;94932.63;4999051;28;20303;-72
2020/12/30 07:34:14;;;;;;;10.47;6.00;;;;;;;0.65;100.00;94935.88;4998940;28;20222;-72
2020/12/30 07:36:40;;;;;;;12.67;6.67;;;;;;;0.73;100.00;94928.19;4997921;28;20679;-72
2020/12/30 07:39:07;;;;;;;11.07;6.20;;;;;;;0.79;100.00;94937.94;4999014;28;20585;-72
2020/12/30 07:41:36;;;;;;;12.57;6.30;;;;;;;0.86;100.00;94940.75;4998964;28;20336;-72
2020/12/30 07:44:04;;;;;;;16.40;6.13;;;;;;;0.72;100.00;94939.50;4998623;28;20229;-72
2020/12/30 07:46:30;;;;;;;12.30;6.20;;;;;;;0.70;100.00;94950.97;4998640;28;21075;-72
2020/12/30 07:49:07;;;;;;;15.57;6.73;;;;;;;0.76;100.00;94945.22;4997934;28;20210;-72
2020/12/30 07:51:33;;;;;;;16.97;8.00;;;;;;;0.80;100.00;94951.72;4999103;28;20201;-72
2020/12/30 07:53:59;;;;;;;24.40;10.40;;;;;;;0.90;100.00;94961.03;4998691;28;20276;-72
2020/12/30 07:56:26;;;;;;;27.37;10.37;;;;;;;0.97;100.00;94956.06;4998467;28;20208;-72
2020/12/30 07:58:53;;;;;;;27.53;11.47;;;;;;;0.92;100.00;94958.31;4998222;28;20593;-72
2020/12/30 08:01:19;;;;;;;66.67;21.73;;;;;;;1.00;100.00;94958.38;4998290;28;20206;-72
2020/12/30 08:03:46;;;;;;;39.40;14.90;;;;;;;1.02;100.00;94957.25;4997126;28;20226;-72
2020/12/30 08:06:13;;;;;;;37.30;15.27;;;;;;;1.11;100.00;94955.50;4997532;28;20206;-72
2020/12/30 08:08:47;;;;;;;37.80;12.83;;;;;;;1.14;100.00;94960.44;4997976;28;20220;-72
2020/12/30 08:11:19;;;;;;;25.73;9.73;;;;;;;1.17;100.00;94949.72;4999330;28;20289;-72
2020/12/30 08:13:45;;;;;;;32.53;11.23;;;;;;;1.25;100.00;94953.22;4997794;28;20617;-72
2020/12/30 08:16:14;;;;;;;38.93;14.70;;;;;;;1.33;100.00;94946.28;4998169;28;20202;-72
2020/12/30 08:18:49;;;;;;;27.17;13.57;;;;;;;1.39;100.00;94955.25;4998672;28;20210;-72
2020/12/30 08:21:16;;;;;;;25.10;11.50;;;;;;;1.42;100.00;94950.53;4998505;28;20217;-72
2020/12/30 08:23:42;;;;;;;18.33;9.03;;;;;;;1.35;100.00;94961.69;4997872;28;20257;-72
2020/12/30 08:26:09;;;;;;;13.17;6.60;;;;;;;1.33;100.00;94961.84;4997880;28;20288;-72
2020/12/30 08:28:35;;;;;;;15.17;7.47;;;;;;;1.34;100.00;94960.88;4997744;28;20206;-72
2020/12/30 08:31:03;;;;;;;21.00;11.27;;;;;;;1.38;100.00;94962.19;4998435;28;20210;-72
2020/12/30 08:33:32;;;;;;;11.70;7.10;;;;;;;1.44;100.00;94961.59;4998199;28;20260;-72
2020/12/30 08:36:15;;;;;;;26.60;10.67;;;;;;;1.48;100.00;94969.91;4997650;28;20830;-72
2020/12/30 08:38:43;;;;;;;28.50;10.57;;;;;;;1.36;100.00;94971.09;4997597;28;20632;-72
2020/12/30 08:41:16;;;;;;;14.80;8.07;;;;;;;1.41;100.00;94969.69;4998117;28;20206;-72
2020/12/30 08:43:44;;;;;;;12.33;7.27;;;;;;;1.46;100.00;94975.22;4997840;28;20229;-72
2020/12/30 08:46:16;;;;;;;20.07;9.17;;;;;;;1.49;100.00;94980.13;4997543;28;20205;-72
2020/12/30 08:48:48;;;;;;;13.70;7.73;;;;;;;1.47;100.00;94979.44;4997442;28;20202;-72
2020/12/30 08:51:28;;;;;;;16.80;7.63;;;;;;;1.56;100.00;94982.91;4997697;28;20208;-72
2020/12/30 08:53:54;;;;;;;17.43;9.10;;;;;;;1.68;100.00;94971.28;4996972;28;20441;-72
2020/12/30 08:56:21;;;;;;;21.37;10.03;;;;;;;1.70;100.00;94975.34;4997200;28;20203;-72
2020/12/30 08:58:51;;;;;;;16.80;8.10;;;;;;;1.74;100.00;94976.69;4998054;28;20211;-72
2020/12/30 09:01:22;;;;;;;17.57;8.90;;;;;;;1.86;100.00;94980.66;4998003;28;20234;-72
2020/12/30 09:03:49;;;;;;;18.67;7.50;;;;;;;1.79;100.00;94971.84;4997524;28;20230;-72
2020/12/30 09:06:26;;;;;;;19.90;10.00;;;;;;;1.82;100.00;94984.53;4997353;28;20205;-72
2020/12/30 09:08:52;;;;;;;17.23;9.07;;;;;;;1.80;100.00;94985.66;4998211;28;20219;-72
2020/12/30 09:11:18;;;;;;;11.90;6.67;;;;;;;1.68;100.00;94985.09;4997747;28;20203;-72
2020/12/30 09:13:44;;;;;;;10.97;6.67;;;;;;;1.76;100.00;94985.13;4997855;28;20226;-72
2020/12/30 09:16:10;;;;;;;12.23;6.67;;;;;;;1.65;100.00;94988.00;4997319;28;20198;-72
2020/12/30 09:18:37;;;;;;;12.43;6.60;;;;;;;1.74;100.00;94991.44;4997324;28;20240;-72
2020/12/30 09:21:04;;;;;;;14.03;7.37;;;;;;;1.97;100.00;94988.97;4997005;28;20585;-72
2020/12/30 09:23:30;;;;;;;14.77;7.30;;;;;;;2.12;100.00;94997.00;4997617;28;20596;-72
2020/12/30 09:25:56;;;;;;;11.73;6.07;;;;;;;2.05;100.00;94993.38;4996354;28;20226;-72
2020/12/30 09:28:23;;;;;;;11.23;6.57;;;;;;;2.13;100.00;94988.25;4997358;28;20240;-72
2020/12/30 09:30:52;;;;;;;12.33;6.40;;;;;;;2.26;100.00;94988.59;4998254;28;20199;-72
2020/12/30 09:33:20;;;;;;;11.57;6.20;;;;;;;2.28;100.00;94989.25;4997532;28;20283;-72
2020/12/30 09:35:47;;;;;;;13.93;6.43;;;;;;;2.26;100.00;94988.59;4996656;28;20230;-72
2020/12/30 09:38:18;;;;;;;13.37;6.57;;;;;;;2.33;100.00;94994.78;4998547;28;20198;-72
2020/12/30 09:40:45;;;;;;;16.47;6.20;;;;;;;2.36;100.00;94992.69;4998344;28;20222;-72
2020/12/30 09:43:13;;;;;;;16.97;7.10;;;;;;;2.46;100.00;94985.59;4998663;28;20268;-72
2020/12/30 09:45:40;;;;;;;12.33;7.03;;;;;;;2.48;100.00;94991.41;4996887;28;20207;-72
2020/12/30 09:48:10;;;;;;;13.20;7.03;;;;;;;2.49;100.00;94988.66;4997648;28;20674;-72
2020/12/30 09:50:36;;;;;;;8.33;4.87;;;;;;;2.50;100.00;94998.09;4996744;28;20770;-71
2020/12/30 09:53:02;;;;;;;12.93;6.27;;;;;;;2.55;100.00;94997.63;4997369;28;20241;-72
2020/12/30 09:55:29;;;;;;;14.20;6.30;;;;;;;2.63;100.00;95003.63;4997201;28;20230;-72
2020/12/30 09:57:55;;;;;;;14.33;6.10;;;;;;;2.67;100.00;94997.19;4997833;28;20214;-72
2020/12/30 10:00:21;;;;;;;10.53;6.50;;;;;;;2.84;100.00;95000.59;4997712;28;20230;-72
2020/12/30 10:02:47;;;;;;;11.33;5.70;;;;;;;2.89;100.00;94998.31;4997767;28;20230;-72
2020/12/30 10:05:13;;;;;;;9.27;5.20;;;;;;;2.94;100.00;94999.50;4997385;28;21184;-72
2020/12/30 10:07:39;;;;;;;10.33;4.80;;;;;;;3.07;100.00;95008.44;4997973;28;20206;-72
2020/12/30 10:10:05;;;;;;;11.63;5.93;;;;;;;3.19;100.00;95006.31;4997823;28;20903;-71
2020/12/30 10:12:34;;;;;;;9.17;6.23;;;;;;;3.19;100.00;95006.31;4998463;28;20229;-72
2020/12/30 10:15:00;;;;;;;11.37;6.43;;;;;;;3.20;100.00;95013.16;5001034;28;20214;-72
2020/12/30 10:17:25;;;;;;;9.03;4.90;;;;;;;3.09;100.00;95016.06;5000738;28;20737;-72
2020/12/30 10:19:51;;;;;;;12.37;6.83;;;;;;;3.10;100.00;95015.09;5001443;28;20300;-72
2020/12/30 10:22:17;;;;;;;12.73;7.00;;;;;;;3.13;100.00;95007.78;4999941;28;20222;-72
2020/12/30 10:24:44;;;;;;;12.00;6.67;;;;;;;3.17;100.00;95010.88;5000175;28;20229;-72
2020/12/30 10:27:10;;;;;;;14.80;6.53;;;;;;;3.28;100.00;95010.56;4999221;28;20745;-72
2020/12/30 10:29:37;;;;;;;11.83;6.17;;;;;;;3.12;100.00;95016.56;5000352;28;20280;-72
2020/12/30 10:32:03;;;;;;;13.27;5.80;;;;;;;3.29;100.00;95017.38;4999753;28;20455;-72
2020/12/30 10:34:29;;;;;;;11.23;6.77;;;;;;;3.55;100.00;95023.22;5000204;28;20586;-72
2020/12/30 10:36:55;;;;;;;13.30;6.60;;;;;;;3.56;100.00;95019.66;4999188;28;20203;-72
2020/12/30 10:39:21;;;;;;;8.43;5.83;;;;;;;3.55;100.00;95023.22;4999977;28;20328;-72
2020/12/30 10:41:47;;;;;;;9.20;5.70;;;;;;;3.45;100.00;95019.97;4999977;28;20552;-72
2020/12/30 10:44:13;;;;;;;8.53;5.77;;;;;;;3.44;100.00;95024.38;4999019;28;20202;-72
2020/12/30 10:46:40;;;;;;;10.60;5.67;;;;;;;3.44;100.00;95019.19;4999167;28;20412;-72
2020/12/30 10:49:05;;;;;;;9.47;6.30;;;;;;;3.60;100.00;95028.75;5000218;28;20217;-72
2020/12/30 10:51:31;;;;;;;11.40;6.37;;;;;;;3.52;100.00;95026.97;4999538;28;20199;-72
2020/12/30 10:53:57;;;;;;;9.43;5.53;;;;;;;3.49;100.00;95029.91;4999274;28;20293;-72
2020/12/30 10:56:23;;;;;;;12.20;5.90;;;;;;;3.51;100.00;95021.94;4998800;28;20615;-72
2020/12/30 10:58:49;;;;;;;9.47;6.00;;;;;;;3.52;100.00;95026.19;4999257;28;20205;-72
2020/12/30 11:01:15;;;;;;;11.27;5.60;;;;;;;3.48;100.00;95025.69;4999229;28;20230;-72
2020/12/30 11:03:42;;;;;;;8.03;4.83;;;;;;;3.39;100.00;95028.47;4998574;28;20591;-72
2020/12/30 11:06:08;;;;;;;8.87;4.60;;;;;;;3.41;100.00;95023.88;4998565;28;20652;-72
2020/12/30 11:08:35;;;;;;;8.70;4.50;;;;;;;3.28;100.00;95016.56;4997972;28;20288;-72
2020/12/30 11:11:02;;;;;;;7.73;4.67;;;;;;;3.23;100.00;95020.63;4998731;28;20732;-72
2020/12/30 11:13:29;;;;;;;8.40;4.53;;;;;;;3.38;100.00;95019.03;4998690;28;20226;-72
2020/12/30 11:15:55;;;;;;;7.63;4.93;;;;;;;3.49;100.00;95031.69;4998379;28;20298;-72
2020/12/30 11:18:21;;;;;;;8.47;5.10;;;;;;;3.50;100.00;95030.72;4998438;28;20246;-72
2020/12/30 11:20:49;;;;;;;9.40;4.63;;;;;;;3.52;100.00;95026.97;4999038;28;20501;-72
2020/12/30 11:23:16;;;;;;;9.07;4.50;;;;;;;3.45;100.00;95025.19;4998519;28;20237;-72
2020/12/30 11:25:42;;;;;;;7.90;3.93;;;;;;;3.55;100.00;95020.63;4996887;28;20198;-72
2020/12/30 11:28:09;;;;;;;5.60;3.43;;;;;;;3.58;100.00;95021.13;4998016;28;20260;-72
2020/12/30 11:30:35;;;;;;;6.97;4.50;;;;;;;3.63;100.00;95022.25;4998653;28;20202;-72